Time;durP1;ratioP1;P1;durP2;ratioP2;P2;SDS_P1;SDS_P2;PMS_P1;PMS_P2;Temp;Humidity;BMP_temperature;BMP_pressure;BME280_temperature;BME280_humidity;BME280_pressure;Samples;Min_cycle;Max_cycle;Signal;HPM_P1;HPM_P2
2022/11/12 00:00:10;;;;;;;23.70;20.23;;;;;;;9.85;100.00;98221.13;5055596;28;20211;-58
2022/11/12 00:02:38;;;;;;;23.83;19.27;;;;;;;9.83;100.00;98221.25;5054577;28;20644;-57
2022/11/12 00:05:07;;;;;;;22.07;19.67;;;;;;;9.82;100.00;98216.91;5055396;28;20238;-58
2022/11/12 00:07:35;;;;;;;22.10;19.47;;;;;;;9.80;100.00;98215.31;5054585;28;20237;-57
2022/11/12 00:10:02;;;;;;;22.27;19.87;;;;;;;9.78;100.00;98209.28;5055267;28;20203;-57
2022/11/12 00:12:28;;;;;;;22.80;19.93;;;;;;;9.81;100.00;98215.22;5054896;28;20303;-58
2022/11/12 00:14:55;;;;;;;23.63;20.10;;;;;;;9.75;100.00;98215.63;5058625;28;20326;-57
2022/11/12 00:17:22;;;;;;;24.23;19.97;;;;;;;9.74;100.00;98216.56;5071699;28;20225;-58
2022/11/12 00:19:49;;;;;;;24.43;20.97;;;;;;;9.75;100.00;98210.34;5059439;28;20238;-58
2022/11/12 00:22:16;;;;;;;24.90;19.90;;;;;;;9.77;100.00;98215.53;5058812;28;20203;-57
2022/11/12 00:24:46;;;;;;;25.37;20.53;;;;;;;9.77;100.00;98219.03;5059277;28;20203;-57
2022/11/12 00:27:13;;;;;;;23.77;20.07;;;;;;;9.76;100.00;98227.03;5059040;28;20290;-58
2022/11/12 00:29:40;;;;;;;24.63;19.87;;;;;;;9.75;100.00;98218.25;5070179;28;20331;-57
2022/11/12 00:32:07;;;;;;;21.30;18.87;;;;;;;9.74;100.00;98219.19;5058525;28;20281;-58
2022/11/12 00:34:34;;;;;;;21.90;19.40;;;;;;;9.72;100.00;98228.19;5058647;28;20241;-58
2022/11/12 00:37:01;;;;;;;24.20;20.63;;;;;;;9.69;100.00;98221.31;5059283;28;20239;-57
2022/11/12 00:39:29;;;;;;;23.93;19.33;;;;;;;9.71;100.00;98224.69;5058196;28;20264;-57
2022/11/12 00:42:00;;;;;;;21.53;19.20;;;;;;;9.71;100.00;98218.53;5061444;28;20203;-58
2022/11/12 00:44:28;;;;;;;21.43;19.13;;;;;;;9.68;100.00;98221.38;5058476;28;20219;-57
2022/11/12 00:46:55;;;;;;;21.47;18.70;;;;;;;9.71;100.00;98226.47;5058742;28;20203;-58
2022/11/12 00:49:22;;;;;;;22.73;19.13;;;;;;;9.67;100.00;98231.09;5058596;28;20289;-56
2022/11/12 00:51:49;;;;;;;24.50;20.77;;;;;;;9.64;100.00;98238.38;5057890;28;20207;-57
2022/11/12 00:54:16;;;;;;;22.27;19.87;;;;;;;9.66;100.00;98232.06;5058480;28;20628;-57
2022/11/12 00:56:43;;;;;;;24.50;19.77;;;;;;;9.64;100.00;98223.38;5058875;28;20230;-58
2022/11/12 00:59:12;;;;;;;22.93;20.00;;;;;;;9.62;100.00;98232.38;5058397;28;20203;-58
2022/11/12 01:01:39;;;;;;;23.53;20.13;;;;;;;9.66;100.00;98237.34;5057690;28;20214;-57
2022/11/12 01:04:06;;;;;;;22.67;20.23;;;;;;;9.65;100.00;98230.38;5058346;28;20294;-57
2022/11/12 01:06:33;;;;;;;23.33;20.83;;;;;;;9.61;100.00;98231.50;5058844;28;20211;-57
2022/11/12 01:09:02;;;;;;;23.73;20.70;;;;;;;9.63;100.00;98234.06;5058318;28;20210;-58
2022/11/12 01:11:30;;;;;;;23.67;20.37;;;;;;;9.67;100.00;98230.28;5058139;28;20211;-57
2022/11/12 01:13:59;;;;;;;23.83;21.07;;;;;;;9.63;100.00;98234.91;5062145;28;20240;-58
2022/11/12 01:16:35;;;;;;;27.47;22.87;;;;;;;9.64;100.00;98228.66;5094157;28;20214;-58
2022/11/12 01:19:06;;;;;;;23.73;21.07;;;;;;;9.62;100.00;98227.06;5077970;28;20194;-58
2022/11/12 01:21:33;;;;;;;23.70;20.77;;;;;;;9.61;100.00;98228.00;5069485;28;20207;-57
2022/11/12 01:24:01;;;;;;;24.13;21.00;;;;;;;9.60;100.00;98227.16;5058336;28;20203;-58
2022/11/12 01:26:28;;;;;;;22.90;20.50;;;;;;;9.63;100.00;98220.84;5058103;28;20239;-57
2022/11/12 01:28:55;;;;;;;26.40;20.83;;;;;;;9.62;100.00;98216.50;5057550;28;20294;-57
2022/11/12 01:31:23;;;;;;;23.37;20.87;;;;;;;9.63;100.00;98211.16;5057020;28;20302;-57
2022/11/12 01:33:53;;;;;;;24.43;21.27;;;;;;;9.62;100.00;98208.59;5056503;28;20651;-57
2022/11/12 01:36:21;;;;;;;23.07;20.47;;;;;;;9.65;100.00;98200.47;5057225;28;20314;-58
2022/11/12 01:38:48;;;;;;;23.13;20.30;;;;;;;9.62;100.00;98198.03;5056714;28;20639;-57
2022/11/12 01:41:17;;;;;;;22.73;20.33;;;;;;;9.58;100.00;98194.72;5071047;28;20606;-59
2022/11/12 01:43:44;;;;;;;24.67;21.93;;;;;;;9.59;100.00;98196.44;5068494;28;20233;-58
2022/11/12 01:46:16;;;;;;;23.20;20.80;;;;;;;9.60;100.00;98194.66;5059921;28;20198;-58
2022/11/12 01:48:47;;;;;;;24.33;20.47;;;;;;;9.57;100.00;98189.53;5057745;28;20290;-58
2022/11/12 01:51:16;;;;;;;23.77;19.90;;;;;;;9.57;100.00;98193.03;5057799;28;20247;-58
2022/11/12 01:53:45;;;;;;;26.60;20.53;;;;;;;9.61;100.00;98199.81;5057338;28;20675;-58
2022/11/12 01:56:18;;;;;;;24.47;20.00;;;;;;;9.50;100.00;98184.66;5057721;28;20262;-57
2022/11/12 01:58:48;;;;;;;25.27;20.70;;;;;;;9.50;100.00;98184.66;5058225;28;20235;-58
2022/11/12 02:01:16;;;;;;;25.97;22.03;;;;;;;9.45;100.00;98191.19;5058728;28;20612;-57
2022/11/12 02:03:42;;;;;;;26.07;21.50;;;;;;;9.46;100.00;98185.81;5060436;28;20214;-58
2022/11/12 02:06:11;;;;;;;23.00;19.73;;;;;;;9.51;100.00;98182.88;5071244;28;20199;-58
2022/11/12 02:08:40;;;;;;;22.53;19.00;;;;;;;9.50;100.00;98183.81;5059492;28;20237;-57
2022/11/12 02:11:15;;;;;;;19.37;17.03;;;;;;;9.51;100.00;98188.16;5059222;28;20558;-57
2022/11/12 02:13:57;;;;;;;19.33;17.30;;;;;;;9.49;100.00;98182.13;5059267;28;20230;-57
2022/11/12 02:16:24;;;;;;;19.87;16.93;;;;;;;9.50;100.00;98184.66;5058975;28;20226;-58
2022/11/12 02:18:52;;;;;;;22.67;17.67;;;;;;;9.52;100.00;98181.94;5056469;28;20214;-58
2022/11/12 02:21:21;;;;;;;22.60;19.53;;;;;;;9.55;100.00;98186.16;5056944;28;20380;-57
2022/11/12 02:23:47;;;;;;;18.50;16.50;;;;;;;9.55;100.00;98192.28;5061600;28;20294;-57
2022/11/12 02:26:15;;;;;;;18.47;16.57;;;;;;;9.58;100.00;98181.53;5063535;28;20199;-57
2022/11/12 02:28:42;;;;;;;19.67;16.43;;;;;;;9.55;100.00;98176.44;5056482;28;20603;-57
2022/11/12 02:31:08;;;;;;;19.97;17.87;;;;;;;9.49;100.00;98184.78;5055645;28;20211;-57
2022/11/12 02:33:35;;;;;;;16.27;14.57;;;;;;;9.48;100.00;98180.44;5056749;28;20230;-58
2022/11/12 02:36:04;;;;;;;18.00;16.17;;;;;;;9.43;100.00;98179.88;5061221;28;20254;-57
2022/11/12 02:38:32;;;;;;;18.57;15.77;;;;;;;9.39;100.00;98181.84;5056540;28;20203;-58
2022/11/12 02:40:59;;;;;;;18.43;16.53;;;;;;;9.39;100.00;98186.28;5055885;28;20210;-58
2022/11/12 02:43:26;;;;;;;18.73;16.73;;;;;;;9.33;100.00;98186.69;5056671;28;20253;-57
2022/11/12 02:45:53;;;;;;;18.40;15.73;;;;;;;9.31;100.00;98186.81;5056800;28;20234;-56
2022/11/12 02:48:21;;;;;;;18.80;16.27;;;;;;;9.30;100.00;98185.09;5056666;28;20238;-57
2022/11/12 02:50:48;;;;;;;17.57;15.43;;;;;;;9.33;100.00;98191.97;5056387;28;20286;-57
2022/11/12 02:53:15;;;;;;;20.63;16.97;;;;;;;9.25;100.00;98192.44;5055612;28;20203;-57
2022/11/12 02:55:44;;;;;;;18.40;16.57;;;;;;;9.23;100.00;98191.72;5056713;28;20326;-57
2022/11/12 02:58:11;;;;;;;17.70;15.47;;;;;;;9.24;100.00;98177.56;5059020;28;20249;-58
2022/11/12 03:00:37;;;;;;;17.93;16.00;;;;;;;9.22;100.00;98183.88;5060839;28;20243;-57
2022/11/12 03:03:05;;;;;;;18.83;16.23;;;;;;;9.19;100.00;98181.44;5055926;28;20249;-57
2022/11/12 03:05:36;;;;;;;18.97;16.97;;;;;;;9.23;100.00;98180.31;5056326;28;20203;-58
2022/11/12 03:08:05;;;;;;;19.27;17.27;;;;;;;9.26;100.00;98177.47;5056419;28;20238;-57
2022/11/12 03:10:32;;;;;;;20.97;17.83;;;;;;;9.28;100.00;98180.88;5056312;28;20578;-58
2022/11/12 03:13:03;;;;;;;20.47;18.27;;;;;;;9.32;100.00;98180.56;5055575;28;20294;-57
2022/11/12 03:15:30;;;;;;;20.87;17.27;;;;;;;9.35;100.00;98177.72;5056084;28;20191;-57
2022/11/12 03:17:58;;;;;;;20.40;17.50;;;;;;;9.35;100.00;98171.63;5056815;28;20584;-57
2022/11/12 03:20:26;;;;;;;18.80;16.63;;;;;;;9.40;100.00;98178.28;5056767;28;20207;-58
2022/11/12 03:22:58;;;;;;;19.37;17.23;;;;;;;9.38;100.00;98168.78;5055488;28;20301;-57
2022/11/12 03:25:25;;;;;;;19.03;16.67;;;;;;;9.41;100.00;98166.78;5055986;28;20719;-57
2022/11/12 03:27:57;;;;;;;18.33;16.37;;;;;;;9.40;100.00;98162.44;5056727;28;20635;-58
2022/11/12 03:30:27;;;;;;;21.93;16.93;;;;;;;9.39;100.00;98173.09;5056729;28;20222;-57
2022/11/12 03:32:55;;;;;;;18.33;16.10;;;;;;;9.40;100.00;98173.00;5056440;28;20239;-56
2022/11/12 03:35:22;;;;;;;18.30;16.47;;;;;;;9.39;100.00;98159.88;5061246;28;20269;-57
2022/11/12 03:37:50;;;;;;;18.07;15.93;;;;;;;9.37;100.00;98151.22;5055838;28;20230;-58
2022/11/12 03:40:17;;;;;;;16.63;14.83;;;;;;;9.36;100.00;98160.94;5056168;28;20586;-58
2022/11/12 03:42:48;;;;;;;18.33;15.77;;;;;;;9.35;100.00;98153.13;5071080;28;20223;-56
2022/11/12 03:45:15;;;;;;;17.57;15.77;;;;;;;9.38;100.00;98150.28;5078191;28;20200;-57
2022/11/12 03:47:48;;;;;;;15.50;13.90;;;;;;;9.39;100.00;98151.97;5089362;28;20209;-59
2022/11/12 03:50:17;;;;;;;14.17;12.77;;;;;;;9.39;100.00;98160.72;5083769;28;20210;-58
2022/11/12 03:52:44;;;;;;;13.53;12.23;;;;;;;9.33;100.00;98155.00;5063700;28;20573;-58
2022/11/12 03:55:11;;;;;;;12.57;11.37;;;;;;;9.33;100.00;98153.22;5063420;28;20235;-58
2022/11/12 03:57:38;;;;;;;12.13;10.93;;;;;;;9.34;100.00;98151.44;5060780;28;20227;-58
2022/11/12 04:00:07;;;;;;;11.67;10.43;;;;;;;9.30;100.00;98158.69;5058800;28;20218;-58
2022/11/12 04:02:35;;;;;;;11.97;10.77;;;;;;;9.21;100.00;98155.81;5062463;28;20214;-57
2022/11/12 04:10:34;;;;;;;12.23;11.10;;;;;;;9.11;100.00;98160.81;5069522;28;20226;-58
2022/11/12 04:21:49;;;;;;;11.73;10.67;;;;;;;9.15;100.00;98156.16;5075409;28;20190;-57
2022/11/12 04:24:02;;;;;;;11.70;10.50;;;;;;;9.12;100.00;98140.53;5078091;28;20202;-57
2022/11/12 04:26:29;;;;;;;11.73;10.63;;;;;;;9.13;100.00;98139.59;5093382;28;20186;-57
2022/11/12 04:31:42;;;;;;;12.00;10.80;;;;;;;9.08;100.00;98137.25;5070958;28;20624;-58
2022/11/12 04:36:57;;;;;;;11.47;10.37;;;;;;;9.04;100.00;98134.88;5047588;28;20226;-58
2022/11/12 04:39:24;;;;;;;12.00;10.07;;;;;;;8.96;100.00;98144.13;5066248;28;20293;-57
2022/11/12 04:47:21;;;;;;;11.07;10.07;;;;;;;8.97;100.00;98131.78;5055622;28;20215;-57
2022/11/12 04:49:47;;;;;;;11.53;10.47;;;;;;;8.97;100.00;98122.09;5055842;28;20238;-57
2022/11/12 04:52:16;;;;;;;11.90;10.80;;;;;;;8.95;100.00;98123.16;5053855;28;20290;-57
2022/11/12 04:54:45;;;;;;;11.23;10.23;;;;;;;8.96;100.00;98124.84;5054794;28;20687;-57
2022/11/12 04:57:12;;;;;;;13.10;11.80;;;;;;;9.03;100.00;98122.66;5054915;28;20316;-58
2022/11/12 04:59:39;;;;;;;15.13;13.63;;;;;;;9.06;100.00;98122.47;5055906;28;20207;-58
2022/11/12 05:02:05;;;;;;;15.97;14.37;;;;;;;9.07;100.00;98126.81;5058296;28;20239;-58
2022/11/12 05:04:32;;;;;;;15.73;14.13;;;;;;;9.07;100.00;98126.81;5058499;28;20286;-58
2022/11/12 05:07:00;;;;;;;15.87;14.17;;;;;;;9.11;100.00;98134.41;5059488;28;20289;-58
2022/11/12 05:09:29;;;;;;;16.60;14.90;;;;;;;9.12;100.00;98124.69;5058700;28;20280;-57
2022/11/12 05:11:57;;;;;;;17.57;15.27;;;;;;;9.13;100.00;98127.25;5058457;28;20237;-58
2022/11/12 05:14:24;;;;;;;17.10;15.30;;;;;;;9.16;100.00;98116.50;5057949;28;20234;-58
2022/11/12 05:16:53;;;;;;;17.17;15.37;;;;;;;9.09;100.00;98120.47;5058496;28;20679;-57
2022/11/12 05:19:20;;;;;;;17.00;15.20;;;;;;;9.13;100.00;98126.41;5057751;28;20269;-57
2022/11/12 05:22:05;;;;;;;16.90;15.10;;;;;;;9.10;100.00;98116.06;5057265;28;20612;-58
2022/11/12 05:24:37;;;;;;;15.90;14.30;;;;;;;9.08;100.00;98113.50;5056699;28;20225;-56
2022/11/12 05:27:06;;;;;;;16.70;15.00;;;;;;;9.07;100.00;98105.69;5064033;28;20203;-56
2022/11/12 05:29:33;;;;;;;17.03;15.03;;;;;;;9.00;100.00;98110.50;5069043;28;20259;-58
2022/11/12 05:32:00;;;;;;;16.67;14.97;;;;;;;9.00;100.00;98110.50;5057728;28;20238;-57
2022/11/12 05:34:26;;;;;;;15.70;14.10;;;;;;;8.98;100.00;98107.97;5062806;28;20234;-58
2022/11/12 05:36:53;;;;;;;16.23;14.63;;;;;;;8.95;100.00;98110.81;5057777;28;20314;-56
2022/11/12 05:39:20;;;;;;;15.90;14.30;;;;;;;8.88;100.00;98104.22;5057391;28;20304;-58
2022/11/12 05:41:53;;;;;;;16.63;14.93;;;;;;;8.94;100.00;98111.75;5060607;28;20608;-57
2022/11/12 05:44:20;;;;;;;16.23;14.40;;;;;;;8.96;100.00;98109.00;5057663;28;20203;-57
2022/11/12 05:46:47;;;;;;;15.63;14.13;;;;;;;8.93;100.00;98107.41;5057881;28;20238;-57
2022/11/12 05:49:15;;;;;;;17.23;15.53;;;;;;;8.92;100.00;98110.16;5057575;28;20214;-57
2022/11/12 05:51:42;;;;;;;16.33;14.73;;;;;;;8.94;100.00;98105.59;5057215;28;20211;-57
2022/11/12 05:54:08;;;;;;;16.93;14.90;;;;;;;8.90;100.00;98104.97;5056846;28;20223;-57
2022/11/12 05:56:36;;;;;;;16.23;14.53;;;;;;;8.93;100.00;98115.31;5057822;28;20254;-57
2022/11/12 05:59:07;;;;;;;16.97;15.27;;;;;;;8.97;100.00;98110.69;5057171;28;20265;-58
2022/11/12 06:01:37;;;;;;;17.33;15.43;;;;;;;8.93;100.00;98110.03;5057148;28;20364;-57
2022/11/12 06:04:05;;;;;;;17.23;15.43;;;;;;;8.88;100.00;98116.56;5057814;28;20289;-57
2022/11/12 06:06:32;;;;;;;17.17;15.47;;;;;;;8.81;100.00;98125.81;5055785;28;20229;-58
2022/11/12 06:08:59;;;;;;;17.60;15.73;;;;;;;8.81;100.00;98126.66;5056705;28;20708;-58
2022/11/12 06:11:25;;;;;;;18.03;16.20;;;;;;;8.82;100.00;98127.50;5082983;28;20189;-57
2022/11/12 06:13:53;;;;;;;17.37;15.53;;;;;;;8.80;100.00;98132.00;5094459;28;20203;-58
2022/11/12 06:16:21;;;;;;;18.33;16.40;;;;;;;8.89;100.00;98134.09;5079470;28;20210;-57
2022/11/12 06:18:48;;;;;;;19.33;16.63;;;;;;;8.85;100.00;98141.34;5072116;28;20287;-57
2022/11/12 06:21:26;;;;;;;18.10;16.17;;;;;;;8.88;100.00;98143.78;5064687;28;20533;-57
2022/11/12 06:23:57;;;;;;;18.20;16.37;;;;;;;8.90;100.00;98147.16;5058825;28;20203;-57
2022/11/12 06:26:25;;;;;;;17.87;15.77;;;;;;;8.89;100.00;98142.81;5057533;28;20210;-57
2022/11/12 06:28:52;;;;;;;19.67;16.53;;;;;;;8.88;100.00;98140.31;5057312;28;20234;-58
2022/11/12 06:31:21;;;;;;;17.27;15.57;;;;;;;8.87;100.00;98141.25;5056382;28;20303;-57
2022/11/12 06:33:50;;;;;;;17.87;15.97;;;;;;;8.88;100.00;98148.22;5057753;28;20203;-58
2022/11/12 06:36:21;;;;;;;17.73;15.80;;;;;;;8.93;100.00;98162.81;5060796;28;20218;-57
2022/11/12 06:38:51;;;;;;;17.63;15.67;;;;;;;8.92;100.00;98161.13;5056524;28;20272;-58
2022/11/12 06:41:18;;;;;;;17.73;15.83;;;;;;;8.90;100.00;98162.16;5059299;28;20206;-57
2022/11/12 06:43:45;;;;;;;16.73;15.07;;;;;;;8.92;100.00;98158.50;5056204;28;20214;-57
2022/11/12 06:46:13;;;;;;;17.50;15.60;;;;;;;8.97;100.00;98164.31;5057590;28;20293;-58
2022/11/12 06:48:43;;;;;;;16.10;14.50;;;;;;;8.97;100.00;98164.31;5056705;28;20229;-58
2022/11/12 06:51:12;;;;;;;16.13;14.47;;;;;;;8.99;100.00;98156.31;5057612;28;20203;-58
2022/11/12 06:53:39;;;;;;;17.43;15.60;;;;;;;8.94;100.00;98150.47;5056859;28;20269;-58
2022/11/12 06:56:08;;;;;;;17.00;15.27;;;;;;;8.98;100.00;98149.34;5056770;28;20253;-57
2022/11/12 06:58:35;;;;;;;16.80;15.10;;;;;;;8.96;100.00;98151.22;5057402;28;20675;-57
2022/11/12 07:01:07;;;;;;;19.50;16.83;;;;;;;8.98;100.00;98150.19;5056539;28;20620;-57
2022/11/12 07:03:34;;;;;;;18.40;16.07;;;;;;;9.02;100.00;98153.47;5056193;28;20611;-56
2022/11/12 07:06:06;;;;;;;18.93;15.80;;;;;;;9.02;100.00;98157.91;5061284;28;20207;-57
2022/11/12 07:08:33;;;;;;;17.80;16.00;;;;;;;9.01;100.00;98154.41;5076581;28;20205;-58
2022/11/12 07:11:01;;;;;;;18.73;16.73;;;;;;;9.04;100.00;98148.94;5062536;28;20215;-57
2022/11/12 07:13:31;;;;;;;18.37;16.30;;;;;;;9.10;100.00;98156.50;5057065;28;20210;-57
2022/11/12 07:15:58;;;;;;;18.57;16.57;;;;;;;9.13;100.00;98148.38;5056482;28;20613;-56
2022/11/12 07:18:25;;;;;;;18.57;16.23;;;;;;;9.15;100.00;98145.63;5056089;28;20237;-57
2022/11/12 07:20:52;;;;;;;18.60;16.53;;;;;;;9.19;100.00;98141.84;5055481;28;20207;-57
2022/11/12 07:23:20;;;;;;;18.67;16.70;;;;;;;9.23;100.00;98138.91;5055795;28;20626;-58
2022/11/12 07:25:47;;;;;;;22.00;18.63;;;;;;;9.18;100.00;98141.00;5065277;28;20241;-57
2022/11/12 07:28:14;;;;;;;22.47;19.03;;;;;;;9.24;100.00;98152.97;5059479;28;20234;-56
2022/11/12 07:30:40;;;;;;;20.10;17.63;;;;;;;9.27;100.00;98161.53;5055804;28;20298;-57
2022/11/12 07:33:08;;;;;;;20.10;18.03;;;;;;;9.30;100.00;98165.75;5055363;28;20266;-57
2022/11/12 07:35:35;;;;;;;21.17;18.83;;;;;;;9.32;100.00;98155.94;5060823;28;20207;-57
2022/11/12 07:38:03;;;;;;;21.33;18.57;;;;;;;9.30;100.00;98161.34;5053913;28;20259;-57
2022/11/12 07:40:32;;;;;;;20.67;17.43;;;;;;;9.32;100.00;98169.13;5056366;28;20297;-58
2022/11/12 07:42:59;;;;;;;21.57;19.23;;;;;;;9.30;100.00;98168.41;5057970;28;20238;-58
2022/11/12 07:45:26;;;;;;;21.03;17.90;;;;;;;9.30;100.00;98179.81;5056138;28;20691;-57
2022/11/12 07:47:53;;;;;;;21.20;18.43;;;;;;;9.34;100.00;98170.75;5055854;28;20202;-58
2022/11/12 07:50:20;;;;;;;22.13;18.43;;;;;;;9.37;100.00;98170.56;5056720;28;20290;-58
2022/11/12 07:52:46;;;;;;;22.60;19.53;;;;;;;9.37;100.00;98161.78;5055645;28;20214;-58
2022/11/12 07:55:13;;;;;;;19.10;17.03;;;;;;;9.41;100.00;98163.28;5056518;28;20640;-58
2022/11/12 07:57:41;;;;;;;20.63;17.63;;;;;;;9.39;100.00;98158.09;5072805;28;20674;-58
2022/11/12 08:00:11;;;;;;;21.80;19.47;;;;;;;9.44;100.00;98157.81;5075203;28;20253;-57
2022/11/12 08:02:38;;;;;;;19.47;17.37;;;;;;;9.44;100.00;98163.94;5055373;28;20214;-58
2022/11/12 08:05:07;;;;;;;21.80;18.50;;;;;;;9.42;100.00;98167.63;5055425;28;20202;-57
2022/11/12 08:07:34;;;;;;;20.30;17.77;;;;;;;9.44;100.00;98157.81;5064255;28;20302;-57
2022/11/12 08:10:01;;;;;;;21.33;19.03;;;;;;;9.40;100.00;98177.44;5054676;28;20298;-57
2022/11/12 08:12:29;;;;;;;21.43;18.17;;;;;;;9.43;100.00;98170.16;5054654;28;20234;-58
2022/11/12 08:14:59;;;;;;;21.47;18.33;;;;;;;9.46;100.00;98169.09;5054216;28;20253;-57
2022/11/12 08:17:26;;;;;;;19.50;17.37;;;;;;;9.48;100.00;98164.59;5054646;28;20664;-57
2022/11/12 08:19:54;;;;;;;20.17;18.00;;;;;;;9.48;100.00;98167.22;5055169;28;20246;-58
2022/11/12 08:22:21;;;;;;;19.90;17.27;;;;;;;9.51;100.00;98167.03;5053766;28;20631;-59
2022/11/12 08:24:47;;;;;;;19.33;17.23;;;;;;;9.47;100.00;98157.59;5067223;28;20214;-57
2022/11/12 08:27:14;;;;;;;20.23;17.77;;;;;;;9.47;100.00;98170.81;5055252;28;20203;-58
2022/11/12 08:29:41;;;;;;;19.67;17.27;;;;;;;9.45;100.00;98175.34;5054692;28;20215;-58
2022/11/12 08:32:09;;;;;;;18.37;16.30;;;;;;;9.49;100.00;98164.47;5053889;28;20327;-58
2022/11/12 08:34:40;;;;;;;19.73;17.20;;;;;;;9.47;100.00;98174.31;5061267;28;20202;-56
2022/11/12 08:37:06;;;;;;;18.87;16.83;;;;;;;9.50;100.00;98174.09;5058956;28;20648;-58
2022/11/12 08:39:33;;;;;;;20.37;17.20;;;;;;;9.53;100.00;98173.03;5064167;28;20229;-57
2022/11/12 08:42:02;;;;;;;18.30;16.40;;;;;;;9.54;100.00;98168.59;5068646;28;20230;-57
2022/11/12 08:44:32;;;;;;;21.60;17.50;;;;;;;9.56;100.00;98166.72;5066315;28;20211;-57
2022/11/12 08:46:59;;;;;;;20.80;18.23;;;;;;;9.58;100.00;98167.47;5065466;28;20257;-56
2022/11/12 08:49:27;;;;;;;19.63;17.50;;;;;;;9.58;100.00;98176.25;5062851;28;20299;-58
2022/11/12 08:51:54;;;;;;;20.70;17.17;;;;;;;9.56;100.00;98162.31;5058288;28;20207;-57
2022/11/12 08:54:23;;;;;;;18.80;16.43;;;;;;;9.58;100.00;98165.69;5057940;28;20217;-57
2022/11/12 08:56:51;;;;;;;20.23;17.17;;;;;;;9.64;100.00;98167.06;5059039;28;20207;-57
2022/11/12 08:59:19;;;;;;;19.30;16.90;;;;;;;9.65;100.00;98166.13;5059494;28;20614;-58
2022/11/12 09:01:45;;;;;;;19.53;17.43;;;;;;;9.62;100.00;98166.31;5059914;28;20289;-57
2022/11/12 09:04:12;;;;;;;20.07;17.33;;;;;;;9.69;100.00;98172.91;5058928;28;20293;-57
2022/11/12 09:06:40;;;;;;;23.20;18.67;;;;;;;9.60;100.00;98174.34;5059203;28;20222;-57
2022/11/12 09:09:07;;;;;;;21.53;18.57;;;;;;;9.64;100.00;98173.19;5063047;28;20226;-57
2022/11/12 09:11:34;;;;;;;20.63;18.40;;;;;;;9.72;100.00;98173.56;5066613;28;20233;-57
2022/11/12 09:14:01;;;;;;;21.60;17.97;;;;;;;9.72;100.00;98173.56;5058218;28;20207;-58
2022/11/12 09:16:28;;;;;;;22.53;19.07;;;;;;;9.78;100.00;98162.56;5057233;28;20233;-57
2022/11/12 09:18:55;;;;;;;20.13;18.03;;;;;;;9.82;100.00;98168.50;5058104;28;20258;-57
2022/11/12 09:21:23;;;;;;;22.27;19.03;;;;;;;9.81;100.00;98162.38;5057194;28;20699;-57
2022/11/12 09:23:52;;;;;;;24.33;18.53;;;;;;;9.77;100.00;98163.53;5057838;28;20253;-57
2022/11/12 09:26:19;;;;;;;21.30;18.63;;;;;;;9.78;100.00;98165.22;5058588;28;20248;-57
2022/11/12 09:28:46;;;;;;;20.50;18.20;;;;;;;9.73;100.00;98159.41;5057358;28;20207;-57
2022/11/12 09:31:13;;;;;;;24.67;19.00;;;;;;;9.70;100.00;98169.31;5056348;28;20580;-57
2022/11/12 09:33:40;;;;;;;22.50;18.77;;;;;;;9.72;100.00;98173.56;5057939;28;20301;-57
2022/11/12 09:36:07;;;;;;;21.23;18.23;;;;;;;9.77;100.00;98179.41;5062808;28;20253;-57
2022/11/12 09:38:34;;;;;;;20.33;18.13;;;;;;;9.82;100.00;98169.34;5067826;28;20224;-56
2022/11/12 09:41:20;;;;;;;21.47;18.20;;;;;;;9.88;100.00;98162.84;5072011;28;20264;-57
2022/11/12 09:43:50;;;;;;;21.07;18.40;;;;;;;9.83;100.00;98163.13;5058009;28;20265;-57
2022/11/12 09:46:35;;;;;;;21.40;18.00;;;;;;;9.89;100.00;98173.28;5056515;28;20207;-55
2022/11/12 09:49:08;;;;;;;21.67;18.33;;;;;;;9.91;100.00;98166.13;5056027;28;20290;-57
2022/11/12 09:51:38;;;;;;;21.50;18.33;;;;;;;9.88;100.00;98181.34;5057898;28;20218;-57
2022/11/12 09:54:14;;;;;;;21.63;18.50;;;;;;;9.90;100.00;98177.63;5057585;28;20246;-57
2022/11/12 09:56:42;;;;;;;20.37;17.57;;;;;;;9.85;100.00;98171.78;5058377;28;20276;-56
2022/11/12 09:59:14;;;;;;;20.50;18.30;;;;;;;9.92;100.00;98169.59;5058362;28;20296;-57
2022/11/12 10:01:53;;;;;;;19.23;17.17;;;;;;;9.89;100.00;98167.16;5057362;28;20203;-58
2022/11/12 10:04:36;;;;;;;22.27;19.10;;;;;;;9.88;100.00;98168.94;5058063;28;20699;-57
2022/11/12 10:07:06;;;;;;;20.67;18.30;;;;;;;9.89;100.00;98164.50;5058759;28;20255;-57
2022/11/12 10:09:37;;;;;;;20.87;18.53;;;;;;;9.98;100.00;98163.91;5068489;28;20286;-57
2022/11/12 10:18:29;;;;;;;34.00;28.17;;;;;;;10.11;100.00;98161.28;5056768;28;20230;-57
2022/11/12 10:20:59;;;;;;;26.47;20.73;;;;;;;10.17;100.00;98160.88;5056043;28;20225;-56
2022/11/12 10:23:28;;;;;;;22.47;18.73;;;;;;;10.15;100.00;98162.81;5055619;28;20314;-57
2022/11/12 10:25:58;;;;;;;20.13;17.97;;;;;;;10.15;100.00;98155.72;5059597;28;20241;-57
2022/11/12 10:28:28;;;;;;;21.87;18.60;;;;;;;10.14;100.00;98159.31;5059138;28;20253;-57
2022/11/12 10:30:59;;;;;;;21.27;18.43;;;;;;;10.19;100.00;98156.38;5057348;28;20338;-56
2022/11/12 10:33:30;;;;;;;20.63;17.93;;;;;;;10.19;100.00;98151.06;5056595;28;20266;-56
2022/11/12 10:36:05;;;;;;;19.73;17.07;;;;;;;10.16;100.00;98149.50;5062538;28;20258;-56
2022/11/12 10:38:33;;;;;;;19.97;16.97;;;;;;;10.23;100.00;98142.00;5057052;28;20546;-57
2022/11/12 10:41:00;;;;;;;22.03;17.90;;;;;;;10.29;100.00;98136.28;5059654;28;20237;-56
2022/11/12 10:43:28;;;;;;;19.03;17.00;;;;;;;10.34;100.00;98134.19;5065786;28;20238;-57
2022/11/12 10:46:13;;;;;;;18.57;16.33;;;;;;;10.42;100.00;98143.25;5061678;28;20284;-56
2022/11/12 10:48:42;;;;;;;19.90;16.53;;;;;;;10.45;100.00;98136.94;5057329;28;20670;-56
2022/11/12 10:51:20;;;;;;;21.60;16.87;;;;;;;10.45;100.00;98126.34;5061083;28;20210;-55
2022/11/12 10:53:47;;;;;;;18.57;16.33;;;;;;;10.53;100.00;98128.44;5069370;28;20202;-56
2022/11/12 10:56:27;;;;;;;20.13;17.97;;;;;;;10.49;100.00;98127.81;5064818;28;20547;-56
2022/11/12 10:59:22;;;;;;;23.13;19.43;;;;;;;10.51;100.00;98117.13;5070041;28;20218;-57
2022/11/12 11:01:56;;;;;;;20.93;17.00;;;;;;;10.63;100.00;98113.66;5041951;28;20243;-56
2022/11/12 11:04:28;;;;;;;20.00;17.73;;;;;;;10.68;100.00;98112.34;5055568;28;20214;-57
2022/11/12 11:07:07;;;;;;;20.47;18.27;;;;;;;10.75;100.00;98116.25;5061707;28;20242;-56
2022/11/12 11:09:34;;;;;;;21.07;18.57;;;;;;;10.76;100.00;98099.44;5075242;28;20211;-57
2022/11/12 11:12:01;;;;;;;20.13;17.60;;;;;;;10.85;100.00;98100.56;5072294;28;20202;-57
2022/11/12 11:14:32;;;;;;;18.90;16.77;;;;;;;10.92;100.00;98104.47;5076948;28;20203;-55
2022/11/12 11:17:01;;;;;;;19.97;17.87;;;;;;;10.90;100.00;98096.66;5066545;28;20226;-56
2022/11/12 11:19:34;;;;;;;21.67;19.07;;;;;;;10.96;100.00;98088.28;5059125;28;20318;-57
2022/11/12 11:22:37;;;;;;;20.00;17.90;;;;;;;11.04;100.00;98097.47;5057565;28;20218;-57
2022/11/12 11:25:15;;;;;;;20.40;18.20;;;;;;;11.07;100.00;98089.28;5012121;28;20200;-57
2022/11/12 11:27:48;;;;;;;23.40;19.33;;;;;;;10.98;100.00;98088.16;5013453;28;20216;-57
2022/11/12 11:30:18;;;;;;;21.80;18.47;;;;;;;11.06;100.00;98088.44;5044068;28;20231;-53
2022/11/12 11:33:00;;;;;;;21.63;18.83;;;;;;;11.05;100.00;98083.28;5054380;28;20606;-63
2022/11/12 11:35:37;;;;;;;20.57;18.00;;;;;;;11.11;100.00;98082.81;5060289;28;20207;-58
2022/11/12 11:38:22;;;;;;;22.83;19.80;;;;;;;11.11;100.00;98080.19;5055434;28;20285;-60
2022/11/12 11:40:56;;;;;;;20.83;18.63;;;;;;;11.10;100.00;98075.81;5059930;28;20202;-56
2022/11/12 11:43:35;;;;;;;23.97;18.53;;;;;;;11.10;100.00;98073.19;5062197;28;20202;-56
2022/11/12 11:46:09;;;;;;;22.57;19.93;;;;;;;11.11;100.00;98074.88;5064124;28;20293;-58
2022/11/12 11:48:49;;;;;;;21.73;19.37;;;;;;;11.07;100.00;98076.06;5071236;28;20210;-64
2022/11/12 11:51:30;;;;;;;24.03;19.70;;;;;;;11.09;100.00;98066.22;5067117;28;20220;-54
2022/11/12 11:54:02;;;;;;;21.13;18.87;;;;;;;11.08;100.00;98059.22;5067277;28;20218;-56
2022/11/12 11:56:32;;;;;;;23.77;18.83;;;;;;;11.03;100.00;98058.69;5068912;28;20260;-54